Terminal Aerodrome Forecast
Issued by NWS Quad Cities IA IL

Home | Current Version | Previous Version | Text Only | Print | Product List | Glossary On
Versions: 1 2 3 4 5 6 7 8 9 10 11 12 13 14 15 16 17 18 19 20 21 22 23 24 25 26 27 28 29 30 31 32
197
FTUS43 KDVN 281601 AAA
TAFMLI
TAF AMD
KMLI 281601Z 2816/2912 07011KT 6SM -RA BR OVC035
      TEMPO 2818/2821 4SM -SHRA BR OVC025
     FM282100 07012KT 5SM -RA BR OVC020
     FM290000 04014KT P6SM VCSH OVC015=

USA.gov is the U.S. government's official web portal to all federal, state and local government web resources and services.